sensor_id;sensor_type;location;lat;lon;timestamp;pressure;altitude;pressure_sealevel;temperature;humidity
58785;BME280;44557;51.862;19.378;2023-04-23T00:00:03;98833.27;;;14.20;45.88
58785;BME280;44557;51.862;19.378;2023-04-23T00:02:28;98832.91;;;14.24;45.69
58785;BME280;44557;51.862;19.378;2023-04-23T00:04:30;98833.80;;;14.16;46.22
58785;BME280;44557;51.862;19.378;2023-04-23T00:06:37;98833.23;;;14.23;46.26
58785;BME280;44557;51.862;19.378;2023-04-23T00:08:39;98829.52;;;14.26;46.04
58785;BME280;44557;51.862;19.378;2023-04-23T00:10:41;98827.05;;;14.33;46.27
58785;BME280;44557;51.862;19.378;2023-04-23T00:12:43;98824.70;;;14.44;45.91
58785;BME280;44557;51.862;19.378;2023-04-23T00:14:46;98824.25;;;14.22;46.14
58785;BME280;44557;51.862;19.378;2023-04-23T00:16:47;98821.67;;;14.06;46.65
58785;BME280;44557;51.862;19.378;2023-04-23T00:18:49;98820.36;;;14.11;46.29
58785;BME280;44557;51.862;19.378;2023-04-23T00:20:51;98821.05;;;13.99;46.54
58785;BME280;44557;51.862;19.378;2023-04-23T00:22:53;98821.61;;;13.99;46.35
58785;BME280;44557;51.862;19.378;2023-04-23T00:24:54;98821.02;;;13.96;46.56
58785;BME280;44557;51.862;19.378;2023-04-23T00:26:56;98813.97;;;13.94;46.83
58785;BME280;44557;51.862;19.378;2023-04-23T00:28:58;98814.42;;;13.91;46.77
58785;BME280;44557;51.862;19.378;2023-04-23T00:30:59;98816.10;;;14.02;46.59
58785;BME280;44557;51.862;19.378;2023-04-23T00:33:01;98816.19;;;13.95;46.61
58785;BME280;44557;51.862;19.378;2023-04-23T00:35:03;98817.87;;;13.81;46.90
58785;BME280;44557;51.862;19.378;2023-04-23T00:37:05;98814.75;;;13.84;47.09
58785;BME280;44557;51.862;19.378;2023-04-23T00:39:08;98813.45;;;13.90;46.84
58785;BME280;44557;51.862;19.378;2023-04-23T00:41:11;98816.36;;;13.73;47.26
58785;BME280;44557;51.862;19.378;2023-04-23T00:43:13;98814.48;;;13.65;47.47
58785;BME280;44557;51.862;19.378;2023-04-23T00:45:15;98812.33;;;13.71;47.20
58785;BME280;44557;51.862;19.378;2023-04-23T00:47:17;98816.55;;;13.60;47.40
58785;BME280;44557;51.862;19.378;2023-04-23T00:49:21;98812.26;;;13.64;47.38
58785;BME280;44557;51.862;19.378;2023-04-23T00:51:24;98806.08;;;13.63;47.55
58785;BME280;44557;51.862;19.378;2023-04-23T00:53:26;98805.75;;;13.55;47.61
58785;BME280;44557;51.862;19.378;2023-04-23T00:55:28;98807.79;;;13.54;47.75
58785;BME280;44557;51.862;19.378;2023-04-23T00:57:29;98808.44;;;13.40;48.00
58785;BME280;44557;51.862;19.378;2023-04-23T00:59:32;98804.11;;;13.49;47.61
58785;BME280;44557;51.862;19.378;2023-04-23T01:01:34;98805.42;;;13.39;47.98
58785;BME280;44557;51.862;19.378;2023-04-23T01:03:36;98806.27;;;13.51;47.84
58785;BME280;44557;51.862;19.378;2023-04-23T01:05:41;98806.16;;;13.41;48.17
58785;BME280;44557;51.862;19.378;2023-04-23T01:07:43;98805.79;;;13.30;48.49
58785;BME280;44557;51.862;19.378;2023-04-23T01:09:47;98802.40;;;13.38;47.85
58785;BME280;44557;51.862;19.378;2023-04-23T01:11:50;98805.65;;;13.38;47.97
58785;BME280;44557;51.862;19.378;2023-04-23T01:13:52;98805.54;;;13.23;48.14
58785;BME280;44557;51.862;19.378;2023-04-23T01:15:54;98804.77;;;13.32;48.08
58785;BME280;44557;51.862;19.378;2023-04-23T01:17:56;98806.77;;;13.40;47.58
58785;BME280;44557;51.862;19.378;2023-04-23T01:19:58;98806.16;;;13.28;47.92
58785;BME280;44557;51.862;19.378;2023-04-23T01:22:00;98804.80;;;13.27;48.04
58785;BME280;44557;51.862;19.378;2023-04-23T01:24:03;98805.23;;;13.36;47.59
58785;BME280;44557;51.862;19.378;2023-04-23T01:26:05;98803.64;;;13.23;48.00
58785;BME280;44557;51.862;19.378;2023-04-23T01:28:07;98803.00;;;13.22;47.84
58785;BME280;44557;51.862;19.378;2023-04-23T01:30:10;98800.07;;;13.14;47.95
58785;BME280;44557;51.862;19.378;2023-04-23T01:32:12;98803.14;;;13.13;47.88
58785;BME280;44557;51.862;19.378;2023-04-23T01:34:14;98801.58;;;13.21;47.50
58785;BME280;44557;51.862;19.378;2023-04-23T01:36:17;98799.65;;;13.13;47.74
58785;BME280;44557;51.862;19.378;2023-04-23T01:38:19;98801.52;;;13.23;47.50
58785;BME280;44557;51.862;19.378;2023-04-23T01:40:22;98797.34;;;13.30;46.94
58785;BME280;44557;51.862;19.378;2023-04-23T01:42:24;98799.62;;;13.23;47.19
58785;BME280;44557;51.862;19.378;2023-04-23T01:44:26;98801.96;;;13.14;47.29
58785;BME280;44557;51.862;19.378;2023-04-23T01:46:28;98803.01;;;13.16;47.30
58785;BME280;44557;51.862;19.378;2023-04-23T01:48:29;98807.89;;;12.98;47.46
58785;BME280;44557;51.862;19.378;2023-04-23T01:50:31;98800.29;;;13.07;47.55
58785;BME280;44557;51.862;19.378;2023-04-23T01:52:33;98801.27;;;12.99;47.68
58785;BME280;44557;51.862;19.378;2023-04-23T01:54:34;98802.36;;;12.92;48.12
58785;BME280;44557;51.862;19.378;2023-04-23T01:56:36;98798.86;;;12.90;48.14
58785;BME280;44557;51.862;19.378;2023-04-23T01:58:37;98797.48;;;12.94;47.98
58785;BME280;44557;51.862;19.378;2023-04-23T02:00:39;98798.13;;;12.89;47.96
58785;BME280;44557;51.862;19.378;2023-04-23T02:02:42;98800.09;;;12.87;48.01
58785;BME280;44557;51.862;19.378;2023-04-23T02:04:45;98796.05;;;13.04;47.73
58785;BME280;44557;51.862;19.378;2023-04-23T02:06:49;98798.95;;;12.90;47.83
58785;BME280;44557;51.862;19.378;2023-04-23T02:08:51;98800.70;;;12.92;48.04
58785;BME280;44557;51.862;19.378;2023-04-23T02:10:52;98797.36;;;12.89;48.18
58785;BME280;44557;51.862;19.378;2023-04-23T02:12:54;98791.55;;;12.98;47.80
58785;BME280;44557;51.862;19.378;2023-04-23T02:14:56;98791.15;;;12.91;47.92
58785;BME280;44557;51.862;19.378;2023-04-23T02:16:57;98787.84;;;12.87;48.02
58785;BME280;44557;51.862;19.378;2023-04-23T02:18:59;98787.11;;;13.02;47.59
58785;BME280;44557;51.862;19.378;2023-04-23T02:21:02;98787.27;;;13.03;47.39
58785;BME280;44557;51.862;19.378;2023-04-23T02:23:05;98787.41;;;12.83;48.08
58785;BME280;44557;51.862;19.378;2023-04-23T02:25:08;98786.83;;;12.88;48.04
58785;BME280;44557;51.862;19.378;2023-04-23T02:27:09;98787.52;;;12.74;48.07
58785;BME280;44557;51.862;19.378;2023-04-23T02:29:11;98786.39;;;12.73;48.25
58785;BME280;44557;51.862;19.378;2023-04-23T02:31:13;98779.33;;;12.76;48.26
58785;BME280;44557;51.862;19.378;2023-04-23T02:33:15;98780.15;;;12.84;48.08
58785;BME280;44557;51.862;19.378;2023-04-23T02:35:16;98782.52;;;12.73;48.39
58785;BME280;44557;51.862;19.378;2023-04-23T02:37:18;98777.50;;;12.64;48.57
58785;BME280;44557;51.862;19.378;2023-04-23T02:39:20;98778.19;;;12.67;48.38
58785;BME280;44557;51.862;19.378;2023-04-23T02:41:21;98779.58;;;12.70;48.50
58785;BME280;44557;51.862;19.378;2023-04-23T02:43:23;98777.43;;;12.70;48.72
58785;BME280;44557;51.862;19.378;2023-04-23T02:45:24;98777.87;;;12.67;48.37
58785;BME280;44557;51.862;19.378;2023-04-23T02:47:26;98775.71;;;12.71;48.42
58785;BME280;44557;51.862;19.378;2023-04-23T02:49:28;98774.34;;;12.81;48.22
58785;BME280;44557;51.862;19.378;2023-04-23T02:51:29;98775.95;;;12.70;48.47
58785;BME280;44557;51.862;19.378;2023-04-23T02:53:32;98772.11;;;12.68;48.44
58785;BME280;44557;51.862;19.378;2023-04-23T02:55:34;98772.38;;;12.69;48.42
58785;BME280;44557;51.862;19.378;2023-04-23T02:57:35;98769.42;;;12.73;48.49
58785;BME280;44557;51.862;19.378;2023-04-23T02:59:37;98773.90;;;12.70;48.78
58785;BME280;44557;51.862;19.378;2023-04-23T03:01:39;98770.90;;;12.65;48.84
58785;BME280;44557;51.862;19.378;2023-04-23T03:03:41;98773.44;;;12.67;48.94
58785;BME280;44557;51.862;19.378;2023-04-23T03:05:43;98768.67;;;12.64;48.86
58785;BME280;44557;51.862;19.378;2023-04-23T03:07:45;98770.77;;;12.57;49.09
58785;BME280;44557;51.862;19.378;2023-04-23T03:09:46;98770.83;;;12.66;49.15
58785;BME280;44557;51.862;19.378;2023-04-23T03:11:48;98770.73;;;12.65;48.80
58785;BME280;44557;51.862;19.378;2023-04-23T03:13:49;98774.20;;;12.54;49.01
58785;BME280;44557;51.862;19.378;2023-04-23T03:15:51;98771.89;;;12.63;49.09
58785;BME280;44557;51.862;19.378;2023-04-23T03:17:53;98773.05;;;12.56;49.20
58785;BME280;44557;51.862;19.378;2023-04-23T03:19:55;98772.07;;;12.53;49.11
58785;BME280;44557;51.862;19.378;2023-04-23T03:21:56;98771.34;;;12.52;49.19
58785;BME280;44557;51.862;19.378;2023-04-23T03:23:58;98771.48;;;12.52;49.42
58785;BME280;44557;51.862;19.378;2023-04-23T03:25:59;98769.70;;;12.48;49.61
58785;BME280;44557;51.862;19.378;2023-04-23T03:28:01;98767.79;;;12.36;49.87
58785;BME280;44557;51.862;19.378;2023-04-23T03:30:03;98766.80;;;12.39;49.88
58785;BME280;44557;51.862;19.378;2023-04-23T03:32:04;98763.48;;;12.49;49.55
58785;BME280;44557;51.862;19.378;2023-04-23T03:34:07;98763.54;;;12.36;49.84
58785;BME280;44557;51.862;19.378;2023-04-23T03:36:08;98763.83;;;12.36;50.18
58785;BME280;44557;51.862;19.378;2023-04-23T03:38:10;98765.86;;;12.43;49.96
58785;BME280;44557;51.862;19.378;2023-04-23T03:40:11;98766.13;;;12.29;50.37
58785;BME280;44557;51.862;19.378;2023-04-23T03:42:13;98763.45;;;12.31;50.19
58785;BME280;44557;51.862;19.378;2023-04-23T03:44:14;98764.67;;;12.28;50.52
58785;BME280;44557;51.862;19.378;2023-04-23T03:46:16;98760.95;;;12.22;50.71
58785;BME280;44557;51.862;19.378;2023-04-23T03:48:18;98759.89;;;12.30;50.78
58785;BME280;44557;51.862;19.378;2023-04-23T03:50:21;98758.02;;;12.36;50.33
58785;BME280;44557;51.862;19.378;2023-04-23T03:52:22;98759.13;;;12.32;50.40
58785;BME280;44557;51.862;19.378;2023-04-23T03:54:24;98758.30;;;12.23;50.88
58785;BME280;44557;51.862;19.378;2023-04-23T03:56:26;98754.77;;;12.26;50.99
58785;BME280;44557;51.862;19.378;2023-04-23T03:58:28;98755.63;;;12.19;51.14
58785;BME280;44557;51.862;19.378;2023-04-23T04:00:30;98752.77;;;12.24;50.58
58785;BME280;44557;51.862;19.378;2023-04-23T04:02:31;98751.61;;;12.47;50.14
58785;BME280;44557;51.862;19.378;2023-04-23T04:04:33;98753.48;;;12.34;50.17
58785;BME280;44557;51.862;19.378;2023-04-23T04:06:35;98752.98;;;12.33;50.24
58785;BME280;44557;51.862;19.378;2023-04-23T04:08:36;98753.92;;;12.26;50.67
58785;BME280;44557;51.862;19.378;2023-04-23T04:10:38;98755.36;;;12.22;50.75
58785;BME280;44557;51.862;19.378;2023-04-23T04:12:41;98751.91;;;12.34;50.70
58785;BME280;44557;51.862;19.378;2023-04-23T04:14:45;98756.89;;;12.45;50.60
58785;BME280;44557;51.862;19.378;2023-04-23T04:16:46;98755.02;;;12.37;50.54
58785;BME280;44557;51.862;19.378;2023-04-23T04:18:48;98757.79;;;12.32;50.66
58785;BME280;44557;51.862;19.378;2023-04-23T04:20:50;98754.31;;;12.36;51.02
58785;BME280;44557;51.862;19.378;2023-04-23T04:22:52;98757.64;;;12.33;51.07
58785;BME280;44557;51.862;19.378;2023-04-23T04:24:54;98756.73;;;12.24;51.23
58785;BME280;44557;51.862;19.378;2023-04-23T04:26:59;98760.27;;;12.40;51.24
58785;BME280;44557;51.862;19.378;2023-04-23T04:29:02;98759.52;;;12.37;51.06
58785;BME280;44557;51.862;19.378;2023-04-23T04:31:04;98757.83;;;12.40;51.24
58785;BME280;44557;51.862;19.378;2023-04-23T04:33:05;98755.88;;;12.41;51.41
58785;BME280;44557;51.862;19.378;2023-04-23T04:35:07;98752.33;;;12.30;51.45
58785;BME280;44557;51.862;19.378;2023-04-23T04:37:09;98751.42;;;12.39;51.40
58785;BME280;44557;51.862;19.378;2023-04-23T04:39:11;98753.25;;;12.40;51.43
58785;BME280;44557;51.862;19.378;2023-04-23T04:41:15;98750.40;;;12.39;51.44
58785;BME280;44557;51.862;19.378;2023-04-23T04:43:16;98749.19;;;12.48;50.89
58785;BME280;44557;51.862;19.378;2023-04-23T04:45:18;98748.88;;;12.43;51.14
58785;BME280;44557;51.862;19.378;2023-04-23T04:47:20;98748.57;;;12.49;51.08
58785;BME280;44557;51.862;19.378;2023-04-23T04:49:21;98750.11;;;12.52;50.95
58785;BME280;44557;51.862;19.378;2023-04-23T04:51:24;98754.05;;;12.63;50.88
58785;BME280;44557;51.862;19.378;2023-04-23T04:53:26;98754.52;;;12.68;50.68
58785;BME280;44557;51.862;19.378;2023-04-23T04:55:28;98757.23;;;12.76;50.32
58785;BME280;44557;51.862;19.378;2023-04-23T04:57:29;98755.89;;;12.83;50.57
58785;BME280;44557;51.862;19.378;2023-04-23T04:59:31;98755.40;;;12.82;50.52
58785;BME280;44557;51.862;19.378;2023-04-23T05:01:32;98758.02;;;12.89;50.15
58785;BME280;44557;51.862;19.378;2023-04-23T05:03:34;98754.45;;;13.01;50.31
58785;BME280;44557;51.862;19.378;2023-04-23T05:05:37;98756.41;;;13.00;50.06
58785;BME280;44557;51.862;19.378;2023-04-23T05:07:38;98758.02;;;13.06;50.01
58785;BME280;44557;51.862;19.378;2023-04-23T05:09:40;98753.82;;;13.19;50.08
58785;BME280;44557;51.862;19.378;2023-04-23T05:11:42;98757.05;;;13.19;49.58
58785;BME280;44557;51.862;19.378;2023-04-23T05:13:44;98750.72;;;13.31;49.64
58785;BME280;44557;51.862;19.378;2023-04-23T05:15:46;98753.76;;;13.42;49.21
58785;BME280;44557;51.862;19.378;2023-04-23T05:17:47;98752.48;;;13.49;49.01
58785;BME280;44557;51.862;19.378;2023-04-23T05:19:53;98753.05;;;13.51;48.50
58785;BME280;44557;51.862;19.378;2023-04-23T05:21:55;98747.78;;;13.54;48.70
58785;BME280;44557;51.862;19.378;2023-04-23T05:23:56;98749.48;;;13.75;48.59
58785;BME280;44557;51.862;19.378;2023-04-23T05:25:58;98750.11;;;13.74;48.50
58785;BME280;44557;51.862;19.378;2023-04-23T05:28:00;98749.77;;;13.72;48.35
58785;BME280;44557;51.862;19.378;2023-04-23T05:30:03;98748.26;;;13.89;48.06
58785;BME280;44557;51.862;19.378;2023-04-23T05:32:05;98750.60;;;14.17;47.57
58785;BME280;44557;51.862;19.378;2023-04-23T05:34:07;98748.70;;;14.35;47.50
58785;BME280;44557;51.862;19.378;2023-04-23T05:36:08;98750.64;;;14.41;46.86
58785;BME280;44557;51.862;19.378;2023-04-23T05:38:10;98752.58;;;14.34;46.91
58785;BME280;44557;51.862;19.378;2023-04-23T05:40:12;98751.73;;;14.37;46.64
58785;BME280;44557;51.862;19.378;2023-04-23T05:42:13;98747.41;;;14.43;46.37
58785;BME280;44557;51.862;19.378;2023-04-23T05:44:15;98748.69;;;14.57;46.33
58785;BME280;44557;51.862;19.378;2023-04-23T05:46:17;98747.09;;;14.68;46.01
58785;BME280;44557;51.862;19.378;2023-04-23T05:48:19;98746.56;;;14.96;45.52
58785;BME280;44557;51.862;19.378;2023-04-23T05:50:21;98747.89;;;14.91;45.35
58785;BME280;44557;51.862;19.378;2023-04-23T05:52:22;98748.04;;;15.05;45.23
58785;BME280;44557;51.862;19.378;2023-04-23T05:54:25;98748.73;;;15.02;45.24
58785;BME280;44557;51.862;19.378;2023-04-23T05:56:26;98748.07;;;15.15;44.81
58785;BME280;44557;51.862;19.378;2023-04-23T05:58:28;98751.23;;;15.38;44.73
58785;BME280;44557;51.862;19.378;2023-04-23T06:00:29;98754.34;;;15.40;44.51
58785;BME280;44557;51.862;19.378;2023-04-23T06:02:31;98748.67;;;15.31;44.11
58785;BME280;44557;51.862;19.378;2023-04-23T06:04:34;98748.91;;;15.50;43.85
58785;BME280;44557;51.862;19.378;2023-04-23T06:06:36;98749.07;;;15.65;43.66
58785;BME280;44557;51.862;19.378;2023-04-23T06:08:37;98749.34;;;15.83;43.68
58785;BME280;44557;51.862;19.378;2023-04-23T06:10:39;98748.71;;;15.96;43.56
58785;BME280;44557;51.862;19.378;2023-04-23T06:12:41;98749.35;;;16.03;43.31
58785;BME280;44557;51.862;19.378;2023-04-23T06:14:43;98748.48;;;16.14;42.91
58785;BME280;44557;51.862;19.378;2023-04-23T06:16:44;98749.89;;;16.18;42.71
58785;BME280;44557;51.862;19.378;2023-04-23T06:18:46;98751.66;;;16.07;42.68
58785;BME280;44557;51.862;19.378;2023-04-23T06:20:47;98750.77;;;16.11;42.66
58785;BME280;44557;51.862;19.378;2023-04-23T06:22:51;98751.33;;;16.16;42.56
58785;BME280;44557;51.862;19.378;2023-04-23T06:24:53;98748.45;;;16.28;42.90
58785;BME280;44557;51.862;19.378;2023-04-23T06:26:55;98747.48;;;16.59;42.73
58785;BME280;44557;51.862;19.378;2023-04-23T06:28:58;98745.64;;;16.64;42.26
58785;BME280;44557;51.862;19.378;2023-04-23T06:30:59;98747.92;;;16.65;42.26
58785;BME280;44557;51.862;19.378;2023-04-23T06:33:07;98749.31;;;16.55;42.29
58785;BME280;44557;51.862;19.378;2023-04-23T06:35:09;98749.26;;;16.76;42.24
58785;BME280;44557;51.862;19.378;2023-04-23T06:37:10;98749.47;;;16.82;42.16
58785;BME280;44557;51.862;19.378;2023-04-23T06:39:12;98752.82;;;16.80;42.18
58785;BME280;44557;51.862;19.378;2023-04-23T06:41:14;98748.48;;;16.70;42.18
58785;BME280;44557;51.862;19.378;2023-04-23T06:43:16;98754.26;;;16.80;41.91
58785;BME280;44557;51.862;19.378;2023-04-23T06:45:18;98752.02;;;16.85;42.05
58785;BME280;44557;51.862;19.378;2023-04-23T06:47:20;98750.76;;;16.77;42.27
58785;BME280;44557;51.862;19.378;2023-04-23T06:49:21;98748.20;;;16.84;42.43
58785;BME280;44557;51.862;19.378;2023-04-23T06:51:26;98746.98;;;16.90;42.29
58785;BME280;44557;51.862;19.378;2023-04-23T06:53:28;98743.98;;;17.05;42.39
58785;BME280;44557;51.862;19.378;2023-04-23T06:55:29;98741.62;;;17.16;41.96
58785;BME280;44557;51.862;19.378;2023-04-23T06:57:31;98737.38;;;17.50;41.44
58785;BME280;44557;51.862;19.378;2023-04-23T06:59:33;98736.33;;;17.26;42.06
58785;BME280;44557;51.862;19.378;2023-04-23T07:01:34;98733.23;;;17.38;42.09
58785;BME280;44557;51.862;19.378;2023-04-23T07:03:36;98731.89;;;17.37;41.89
58785;BME280;44557;51.862;19.378;2023-04-23T07:05:38;98730.64;;;17.60;41.82
58785;BME280;44557;51.862;19.378;2023-04-23T07:07:39;98729.73;;;17.68;41.73
58785;BME280;44557;51.862;19.378;2023-04-23T07:09:43;98731.14;;;17.69;41.99
58785;BME280;44557;51.862;19.378;2023-04-23T07:11:45;98731.30;;;18.00;41.70
58785;BME280;44557;51.862;19.378;2023-04-23T07:13:46;98728.77;;;18.01;41.72
58785;BME280;44557;51.862;19.378;2023-04-23T07:15:48;98726.84;;;18.11;41.60
58785;BME280;44557;51.862;19.378;2023-04-23T07:17:49;98727.91;;;18.31;40.99
58785;BME280;44557;51.862;19.378;2023-04-23T07:19:51;98727.75;;;18.24;41.59
58785;BME280;44557;51.862;19.378;2023-04-23T07:21:53;98727.22;;;18.21;41.42
58785;BME280;44557;51.862;19.378;2023-04-23T07:23:56;98722.34;;;18.48;41.32
58785;BME280;44557;51.862;19.378;2023-04-23T07:25:58;98725.35;;;18.33;41.14
58785;BME280;44557;51.862;19.378;2023-04-23T07:28:00;98721.18;;;18.53;41.11
58785;BME280;44557;51.862;19.378;2023-04-23T07:30:02;98722.19;;;18.56;41.24
58785;BME280;44557;51.862;19.378;2023-04-23T07:32:03;98719.24;;;18.64;40.97
58785;BME280;44557;51.862;19.378;2023-04-23T07:34:05;98714.94;;;19.03;40.63
58785;BME280;44557;51.862;19.378;2023-04-23T07:36:06;98715.36;;;19.02;40.85
58785;BME280;44557;51.862;19.378;2023-04-23T07:38:08;98714.72;;;18.95;40.98
58785;BME280;44557;51.862;19.378;2023-04-23T07:40:10;98711.45;;;19.32;40.92
58785;BME280;44557;51.862;19.378;2023-04-23T07:42:12;98710.17;;;19.26;40.63
58785;BME280;44557;51.862;19.378;2023-04-23T07:44:14;98711.30;;;19.31;41.09
58785;BME280;44557;51.862;19.378;2023-04-23T07:46:15;98707.68;;;19.50;40.03
58785;BME280;44557;51.862;19.378;2023-04-23T07:48:17;98703.36;;;20.01;39.85
58785;BME280;44557;51.862;19.378;2023-04-23T07:50:19;98701.70;;;19.71;40.22
58785;BME280;44557;51.862;19.378;2023-04-23T07:52:21;98703.81;;;19.79;39.97
58785;BME280;44557;51.862;19.378;2023-04-23T07:54:25;98702.11;;;19.70;39.75
58785;BME280;44557;51.862;19.378;2023-04-23T07:56:27;98696.96;;;20.02;39.47
58785;BME280;44557;51.862;19.378;2023-04-23T07:58:29;98703.04;;;19.72;39.77
58785;BME280;44557;51.862;19.378;2023-04-23T08:00:33;98700.48;;;19.62;40.27
58785;BME280;44557;51.862;19.378;2023-04-23T08:02:36;98693.02;;;20.26;39.47
58785;BME280;44557;51.862;19.378;2023-04-23T08:04:38;98696.61;;;20.41;38.94
58785;BME280;44557;51.862;19.378;2023-04-23T08:06:40;98699.67;;;19.97;39.23
58785;BME280;44557;51.862;19.378;2023-04-23T08:08:43;98698.04;;;20.09;39.42
58785;BME280;44557;51.862;19.378;2023-04-23T08:10:45;98699.08;;;19.81;39.37
58785;BME280;44557;51.862;19.378;2023-04-23T08:12:47;98696.05;;;20.04;39.35
58785;BME280;44557;51.862;19.378;2023-04-23T08:14:49;98694.38;;;20.32;39.02
58785;BME280;44557;51.862;19.378;2023-04-23T08:16:52;98696.06;;;20.49;38.21
58785;BME280;44557;51.862;19.378;2023-04-23T08:18:54;98695.27;;;20.81;38.86
58785;BME280;44557;51.862;19.378;2023-04-23T08:20:56;98695.61;;;21.00;37.63
58785;BME280;44557;51.862;19.378;2023-04-23T08:22:58;98693.80;;;20.90;37.43
58785;BME280;44557;51.862;19.378;2023-04-23T08:25:00;98693.71;;;20.46;38.23
58785;BME280;44557;51.862;19.378;2023-04-23T08:27:02;98685.21;;;20.91;37.17
58785;BME280;44557;51.862;19.378;2023-04-23T08:29:04;98685.77;;;21.18;37.28
58785;BME280;44557;51.862;19.378;2023-04-23T08:31:06;98693.79;;;21.02;37.68
58785;BME280;44557;51.862;19.378;2023-04-23T08:33:08;98685.74;;;21.09;37.27
58785;BME280;44557;51.862;19.378;2023-04-23T08:35:09;98691.38;;;20.64;37.56
58785;BME280;44557;51.862;19.378;2023-04-23T08:37:11;98691.66;;;20.66;38.05
58785;BME280;44557;51.862;19.378;2023-04-23T08:39:13;98686.86;;;20.81;38.52
58785;BME280;44557;51.862;19.378;2023-04-23T08:41:17;98685.33;;;20.70;38.70
58785;BME280;44557;51.862;19.378;2023-04-23T08:43:20;98688.55;;;20.48;38.62
58785;BME280;44557;51.862;19.378;2023-04-23T08:45:25;98682.44;;;20.46;39.14
58785;BME280;44557;51.862;19.378;2023-04-23T08:47:28;98689.11;;;20.48;38.72
58785;BME280;44557;51.862;19.378;2023-04-23T08:49:32;98684.10;;;20.67;38.27
58785;BME280;44557;51.862;19.378;2023-04-23T08:51:48;98682.20;;;20.50;38.32
58785;BME280;44557;51.862;19.378;2023-04-23T08:53:52;98678.27;;;20.67;38.66
58785;BME280;44557;51.862;19.378;2023-04-23T08:55:56;98676.82;;;20.75;39.83
58785;BME280;44557;51.862;19.378;2023-04-23T08:57:58;98674.50;;;20.44;39.83
58785;BME280;44557;51.862;19.378;2023-04-23T09:00:02;98669.75;;;20.70;39.54
58785;BME280;44557;51.862;19.378;2023-04-23T09:02:07;98664.64;;;20.96;39.01
58785;BME280;44557;51.862;19.378;2023-04-23T09:04:11;98666.80;;;20.84;38.36
58785;BME280;44557;51.862;19.378;2023-04-23T09:06:18;98659.16;;;20.82;38.24
58785;BME280;44557;51.862;19.378;2023-04-23T09:08:20;98661.66;;;21.12;37.99
58785;BME280;44557;51.862;19.378;2023-04-23T09:10:22;98655.18;;;21.23;37.44
58785;BME280;44557;51.862;19.378;2023-04-23T09:12:25;98653.36;;;21.56;38.21
58785;BME280;44557;51.862;19.378;2023-04-23T09:14:27;98650.10;;;21.82;37.74
58785;BME280;44557;51.862;19.378;2023-04-23T09:16:29;98644.19;;;21.85;37.62
58785;BME280;44557;51.862;19.378;2023-04-23T09:18:31;98643.86;;;21.69;37.16
58785;BME280;44557;51.862;19.378;2023-04-23T09:20:32;98646.73;;;21.66;37.29
58785;BME280;44557;51.862;19.378;2023-04-23T09:24:46;98645.15;;;21.37;36.53
58785;BME280;44557;51.862;19.378;2023-04-23T09:26:48;98637.41;;;20.90;36.96
58785;BME280;44557;51.862;19.378;2023-04-23T09:28:51;98641.91;;;20.85;36.12
58785;BME280;44557;51.862;19.378;2023-04-23T09:30:53;98647.42;;;20.78;35.67
58785;BME280;44557;51.862;19.378;2023-04-23T09:32:55;98646.50;;;20.94;36.10
58785;BME280;44557;51.862;19.378;2023-04-23T09:34:57;98638.57;;;20.84;35.44
58785;BME280;44557;51.862;19.378;2023-04-23T09:36:58;98638.52;;;21.09;35.28
58785;BME280;44557;51.862;19.378;2023-04-23T09:39:00;98639.60;;;21.03;35.12
58785;BME280;44557;51.862;19.378;2023-04-23T09:41:24;98629.08;;;21.16;34.27
58785;BME280;44557;51.862;19.378;2023-04-23T09:43:29;98634.44;;;20.98;33.76
58785;BME280;44557;51.862;19.378;2023-04-23T09:45:30;98626.80;;;21.07;33.59
58785;BME280;44557;51.862;19.378;2023-04-23T09:47:34;98623.54;;;21.10;34.23
58785;BME280;44557;51.862;19.378;2023-04-23T09:49:48;98624.37;;;21.15;34.24
58785;BME280;44557;51.862;19.378;2023-04-23T09:51:50;98622.95;;;20.96;34.09
58785;BME280;44557;51.862;19.378;2023-04-23T09:53:51;98615.10;;;21.22;34.19
58785;BME280;44557;51.862;19.378;2023-04-23T09:55:54;98613.50;;;21.35;34.26
58785;BME280;44557;51.862;19.378;2023-04-23T09:57:57;98607.10;;;21.24;33.48
58785;BME280;44557;51.862;19.378;2023-04-23T10:00:15;98601.06;;;21.23;33.97
58785;BME280;44557;51.862;19.378;2023-04-23T10:02:26;98601.38;;;21.41;33.39
58785;BME280;44557;51.862;19.378;2023-04-23T10:04:28;98605.99;;;21.58;33.04
58785;BME280;44557;51.862;19.378;2023-04-23T10:06:29;98592.86;;;21.70;32.26
58785;BME280;44557;51.862;19.378;2023-04-23T10:08:32;98593.73;;;21.90;32.81
58785;BME280;44557;51.862;19.378;2023-04-23T10:10:34;98591.64;;;21.70;32.76
58785;BME280;44557;51.862;19.378;2023-04-23T10:12:36;98597.87;;;21.62;32.44
58785;BME280;44557;51.862;19.378;2023-04-23T10:14:38;98595.63;;;21.46;32.76
58785;BME280;44557;51.862;19.378;2023-04-23T10:16:43;98595.62;;;21.63;32.80
58785;BME280;44557;51.862;19.378;2023-04-23T10:18:46;98587.54;;;21.33;32.01
58785;BME280;44557;51.862;19.378;2023-04-23T10:20:49;98585.06;;;21.59;32.18
58785;BME280;44557;51.862;19.378;2023-04-23T10:22:52;98575.10;;;21.51;32.02
58785;BME280;44557;51.862;19.378;2023-04-23T10:24:56;98579.48;;;21.68;31.68
58785;BME280;44557;51.862;19.378;2023-04-23T10:27:03;98575.70;;;21.74;31.19
58785;BME280;44557;51.862;19.378;2023-04-23T10:29:08;98572.02;;;21.65;31.38
58785;BME280;44557;51.862;19.378;2023-04-23T10:31:12;98566.70;;;21.50;31.34
58785;BME280;44557;51.862;19.378;2023-04-23T10:33:15;98574.44;;;21.18;31.89
58785;BME280;44557;51.862;19.378;2023-04-23T10:35:18;98572.06;;;21.31;31.26
58785;BME280;44557;51.862;19.378;2023-04-23T10:37:20;98565.14;;;21.67;31.36
58785;BME280;44557;51.862;19.378;2023-04-23T10:39:25;98559.74;;;21.72;31.36
58785;BME280;44557;51.862;19.378;2023-04-23T10:41:33;98562.02;;;21.70;31.61